PWSweather.com
Personal Weather Stations
Station Observations
KVAGLENALL
West Henrico, Glen Allen, VA 23060-6503

West HenricoGlen Allen, VA 23060-6503

Lat: 37.6554, Lon: -77.5693

Elevation: 273

Station Type: Davis Vantage Pro II

www.glenallenweather.com

High Low Average
Temperature 89.8°F32.1°C 63.4°F17.4°C 77.2°F25.1°C
Dew Point 71.4°F21.9°C 60.8°F16.0°C 65.2°F18.4°C
Winds 3.0 mph 4.8 kmh 0.1 mph 0.2 kmh Calm SECalm SE
Wind Gusts 8.1 mph13.0 kmh 0.1 mph0.2 kmh 1.0 mph1.6 kmh
Humidity 92% 46% 69%
Pressure 30.08 in1018.6 mb 30.00 in1015.9 mb -
Precipitation 0.00 in0.0 mm - -
Hour Temp Dew Point Humidity Winds Wind Gusts Pressure Precip Precip Rate Daily Precip Total
12:00 AM 68.7°F20.4°C 62.3°F16.8°C 80% 0.1 mph E0.2 kmh E 0.1 mph0.2 kmh 30.07 in1018.3 mb 0.00 in0.0 mm 0.00 in0.0 mm 0.00 in0.0 mm
12:15 AM 68.2°F20.1°C 62.5°F16.9°C 82% 0.1 mph E0.2 kmh E 0.1 mph0.2 kmh 30.07 in1018.3 mb 0.00 in0.0 mm 0.00 in0.0 mm 0.00 in0.0 mm
12:30 AM 67.9°F19.9°C 62.3°F16.8°C 82% 0.1 mph E0.2 kmh E 0.1 mph0.2 kmh 30.07 in1018.3 mb 0.00 in0.0 mm 0.00 in0.0 mm 0.00 in0.0 mm
12:45 AM 67.6°F19.8°C 62.3°F16.8°C 83% 0.1 mph E0.2 kmh E 0.1 mph0.2 kmh 30.07 in1018.3 mb 0.00 in0.0 mm 0.00 in0.0 mm 0.00 in0.0 mm
01:00 AM 67.5°F19.7°C 62.9°F17.2°C 85% 0.1 mph E0.2 kmh E 0.1 mph0.2 kmh 30.06 in1017.9 mb 0.00 in0.0 mm 0.00 in0.0 mm 0.00 in0.0 mm
01:15 AM 67.1°F19.5°C 62.5°F16.9°C 85% 0.1 mph E0.2 kmh E 0.1 mph0.2 kmh 30.07 in1018.3 mb 0.00 in0.0 mm 0.00 in0.0 mm 0.00 in0.0 mm
01:30 AM 67.1°F19.5°C 62.5°F16.9°C 85% 0.1 mph E0.2 kmh E 0.1 mph0.2 kmh 30.07 in1018.3 mb 0.00 in0.0 mm 0.00 in0.0 mm 0.00 in0.0 mm
01:45 AM 67.3°F19.6°C 62.3°F16.8°C 84% 1.0 mph E1.6 kmh E 1.1 mph1.8 kmh 30.07 in1018.3 mb 0.00 in0.0 mm 0.00 in0.0 mm 0.00 in0.0 mm
02:00 AM 66.9°F19.4°C 62.3°F16.8°C 85% 0.1 mph E0.2 kmh E 0.1 mph0.2 kmh 30.07 in1018.3 mb 0.00 in0.0 mm 0.00 in0.0 mm 0.00 in0.0 mm
02:15 AM 66.3°F19.1°C 62.0°F16.7°C 86% 0.1 mph E0.2 kmh E 1.1 mph1.8 kmh 30.06 in1017.9 mb 0.00 in0.0 mm 0.00 in0.0 mm 0.00 in0.0 mm
02:30 AM 66.7°F19.3°C 62.4°F16.9°C 86% 0.1 mph E0.2 kmh E 0.1 mph0.2 kmh 30.07 in1018.3 mb 0.00 in0.0 mm 0.00 in0.0 mm 0.00 in0.0 mm
02:45 AM 66.4°F19.1°C 62.1°F16.7°C 86% 0.1 mph E0.2 kmh E 0.1 mph0.2 kmh 30.06 in1017.9 mb 0.00 in0.0 mm 0.00 in0.0 mm 0.00 in0.0 mm
03:00 AM 66.4°F19.1°C 62.1°F16.7°C 86% 0.1 mph S0.2 kmh S 3.1 mph5.0 kmh 30.06 in1017.9 mb 0.00 in0.0 mm 0.00 in0.0 mm 0.00 in0.0 mm
03:15 AM 66.3°F19.1°C 61.7°F16.5°C 85% 0.1 mph S0.2 kmh S 0.1 mph0.2 kmh 30.06 in1017.9 mb 0.00 in0.0 mm 0.00 in0.0 mm 0.00 in0.0 mm
03:30 AM 65.7°F18.7°C 61.4°F16.3°C 86% 0.1 mph S0.2 kmh S 0.1 mph0.2 kmh 30.05 in1017.6 mb 0.00 in0.0 mm 0.00 in0.0 mm 0.00 in0.0 mm
03:45 AM 65.3°F18.5°C 61.7°F16.5°C 88% 0.1 mph S0.2 kmh S 0.1 mph0.2 kmh 30.06 in1017.9 mb 0.00 in0.0 mm 0.00 in0.0 mm 0.00 in0.0 mm
04:00 AM 65.1°F18.4°C 61.5°F16.4°C 88% 0.1 mph S0.2 kmh S 0.1 mph0.2 kmh 30.05 in1017.6 mb 0.00 in0.0 mm 0.00 in0.0 mm 0.00 in0.0 mm
04:15 AM 64.8°F18.2°C 61.5°F16.4°C 89% 0.1 mph S0.2 kmh S 0.1 mph0.2 kmh 30.06 in1017.9 mb 0.00 in0.0 mm 0.00 in0.0 mm 0.00 in0.0 mm
04:30 AM 64.5°F18.1°C 61.2°F16.2°C 89% 0.1 mph S0.2 kmh S 0.1 mph0.2 kmh 30.06 in1017.9 mb 0.00 in0.0 mm 0.00 in0.0 mm 0.00 in0.0 mm
04:45 AM 64.4°F18.0°C 61.1°F16.2°C 89% 0.1 mph S0.2 kmh S 0.1 mph0.2 kmh 30.05 in1017.6 mb 0.00 in0.0 mm 0.00 in0.0 mm 0.00 in0.0 mm
05:00 AM 64.1°F17.8°C 60.8°F16.0°C 89% 0.1 mph S0.2 kmh S 0.1 mph0.2 kmh 30.05 in1017.6 mb 0.00 in0.0 mm 0.00 in0.0 mm 0.00 in0.0 mm
05:15 AM 63.9°F17.7°C 60.9°F16.1°C 90% 0.1 mph S0.2 kmh S 0.1 mph0.2 kmh 30.05 in1017.6 mb 0.00 in0.0 mm 0.00 in0.0 mm 0.00 in0.0 mm
05:30 AM 64.1°F17.8°C 61.4°F16.3°C 91% 0.1 mph S0.2 kmh S 0.1 mph0.2 kmh 30.06 in1017.9 mb 0.00 in0.0 mm 0.00 in0.0 mm 0.00 in0.0 mm
05:45 AM 64.2°F17.9°C 61.5°F16.4°C 91% 0.1 mph S0.2 kmh S 0.1 mph0.2 kmh 30.06 in1017.9 mb 0.00 in0.0 mm 0.00 in0.0 mm 0.00 in0.0 mm
06:00 AM 63.9°F17.7°C 61.2°F16.2°C 91% 0.1 mph S0.2 kmh S 0.1 mph0.2 kmh 30.06 in1017.9 mb 0.00 in0.0 mm 0.00 in0.0 mm 0.00 in0.0 mm
06:15 AM 63.8°F17.7°C 61.1°F16.2°C 91% 0.1 mph S0.2 kmh S 0.1 mph0.2 kmh 30.07 in1018.3 mb 0.00 in0.0 mm 0.00 in0.0 mm 0.00 in0.0 mm
06:30 AM 63.4°F17.4°C 61.1°F16.2°C 92% 0.1 mph S0.2 kmh S 0.1 mph0.2 kmh 30.07 in1018.3 mb 0.00 in0.0 mm 0.00 in0.0 mm 0.00 in0.0 mm
06:45 AM 63.5°F17.5°C 61.2°F16.2°C 92% 0.1 mph S0.2 kmh S 0.1 mph0.2 kmh 30.07 in1018.3 mb 0.00 in0.0 mm 0.00 in0.0 mm 0.00 in0.0 mm
07:00 AM 64.0°F17.8°C 61.7°F16.5°C 92% 0.1 mph S0.2 kmh S 0.1 mph0.2 kmh 30.07 in1018.3 mb 0.00 in0.0 mm 0.00 in0.0 mm 0.00 in0.0 mm
07:15 AM 65.0°F18.3°C 62.3°F16.8°C 91% 0.1 mph S0.2 kmh S 0.1 mph0.2 kmh 30.07 in1018.3 mb 0.00 in0.0 mm 0.00 in0.0 mm 0.00 in0.0 mm
07:30 AM 66.3°F19.1°C 63.0°F17.2°C 89% 0.1 mph S0.2 kmh S 0.1 mph0.2 kmh 30.07 in1018.3 mb 0.00 in0.0 mm 0.00 in0.0 mm 0.00 in0.0 mm
07:45 AM 68.0°F20.0°C 63.7°F17.6°C 86% 0.1 mph S0.2 kmh S 0.1 mph0.2 kmh 30.08 in1018.6 mb 0.00 in0.0 mm 0.00 in0.0 mm 0.00 in0.0 mm
08:00 AM 69.7°F20.9°C 64.6°F18.1°C 84% 0.1 mph S0.2 kmh S 0.1 mph0.2 kmh 30.08 in1018.6 mb 0.00 in0.0 mm 0.00 in0.0 mm 0.00 in0.0 mm
08:15 AM 70.8°F21.6°C 64.6°F18.1°C 81% 1.0 mph S1.6 kmh S 1.1 mph1.8 kmh 30.08 in1018.6 mb 0.00 in0.0 mm 0.00 in0.0 mm 0.00 in0.0 mm
08:30 AM 72.1°F22.3°C 64.8°F18.2°C 78% 0.1 mph S0.2 kmh S 0.1 mph0.2 kmh 30.08 in1018.6 mb 0.00 in0.0 mm 0.00 in0.0 mm 0.00 in0.0 mm
08:45 AM 74.7°F23.7°C 65.5°F18.6°C 73% 1.0 mph S1.6 kmh S 2.1 mph3.4 kmh 30.08 in1018.6 mb 0.00 in0.0 mm 0.00 in0.0 mm 0.00 in0.0 mm
09:00 AM 75.1°F23.9°C 65.4°F18.6°C 72% 0.1 mph S0.2 kmh S 0.1 mph0.2 kmh 30.08 in1018.6 mb 0.00 in0.0 mm 0.00 in0.0 mm 0.00 in0.0 mm
09:15 AM 77.4°F25.2°C 65.6°F18.7°C 67% 0.1 mph S0.2 kmh S 1.1 mph1.8 kmh 30.08 in1018.6 mb 0.00 in0.0 mm 0.00 in0.0 mm 0.00 in0.0 mm
09:30 AM 79.3°F26.3°C 67.4°F19.7°C 67% 1.0 mph S1.6 kmh S 1.1 mph1.8 kmh 30.08 in1018.6 mb 0.00 in0.0 mm 0.00 in0.0 mm 0.00 in0.0 mm
09:45 AM 80.8°F27.1°C 67.0°F19.4°C 63% 0.1 mph SE0.2 kmh SE 0.1 mph0.2 kmh 30.08 in1018.6 mb 0.00 in0.0 mm 0.00 in0.0 mm 0.00 in0.0 mm
10:00 AM 82.1°F27.8°C 68.7°F20.4°C 64% 0.1 mph NNE0.2 kmh NNE 2.1 mph3.4 kmh 30.08 in1018.6 mb 0.00 in0.0 mm 0.00 in0.0 mm 0.00 in0.0 mm
10:15 AM 83.1°F28.4°C 67.8°F19.9°C 60% 1.0 mph NE1.6 kmh NE 2.1 mph3.4 kmh 30.08 in1018.6 mb 0.00 in0.0 mm 0.00 in0.0 mm 0.00 in0.0 mm
10:30 AM 83.8°F28.8°C 68.0°F20.0°C 59% 0.1 mph NNE0.2 kmh NNE 0.1 mph0.2 kmh 30.08 in1018.6 mb 0.00 in0.0 mm 0.00 in0.0 mm 0.00 in0.0 mm
10:45 AM 84.6°F29.2°C 67.2°F19.6°C 56% 0.1 mph SE0.2 kmh SE 0.1 mph0.2 kmh 30.08 in1018.6 mb 0.00 in0.0 mm 0.00 in0.0 mm 0.00 in0.0 mm
11:00 AM 86.0°F30.0°C 70.0°F21.1°C 59% 0.1 mph SE0.2 kmh SE 0.1 mph0.2 kmh 30.08 in1018.6 mb 0.00 in0.0 mm 0.00 in0.0 mm 0.00 in0.0 mm
11:15 AM 86.5°F30.3°C 68.5°F20.3°C 55% 1.0 mph NE1.6 kmh NE 2.1 mph3.4 kmh 30.08 in1018.6 mb 0.00 in0.0 mm 0.00 in0.0 mm 0.00 in0.0 mm
11:30 AM 87.1°F30.6°C 67.9°F19.9°C 53% 0.1 mph NE0.2 kmh NE 0.1 mph0.2 kmh 30.07 in1018.3 mb 0.00 in0.0 mm 0.00 in0.0 mm 0.00 in0.0 mm
11:45 AM 87.0°F30.6°C 67.3°F19.6°C 52% 0.1 mph NE0.2 kmh NE 5.1 mph8.2 kmh 30.07 in1018.3 mb 0.00 in0.0 mm 0.00 in0.0 mm 0.00 in0.0 mm
12:00 PM 87.6°F30.9°C 64.9°F18.3°C 47% 0.1 mph NE0.2 kmh NE 0.1 mph0.2 kmh 30.07 in1018.3 mb 0.00 in0.0 mm 0.00 in0.0 mm 0.00 in0.0 mm
12:15 PM 89.8°F32.1°C 71.4°F21.9°C 55% 3.0 mph N4.8 kmh N 3.1 mph5.0 kmh 30.06 in1017.9 mb 0.00 in0.0 mm 0.00 in0.0 mm 0.00 in0.0 mm
12:30 PM 88.9°F31.6°C 67.3°F19.6°C 49% 0.1 mph SE0.2 kmh SE 2.1 mph3.4 kmh 30.06 in1017.9 mb 0.00 in0.0 mm 0.00 in0.0 mm 0.00 in0.0 mm
12:45 PM 88.4°F31.3°C 65.7°F18.7°C 47% 1.0 mph E1.6 kmh E 1.1 mph1.8 kmh 30.06 in1017.9 mb 0.00 in0.0 mm 0.00 in0.0 mm 0.00 in0.0 mm
01:00 PM 88.5°F31.4°C 66.4°F19.1°C 48% 2.0 mph NNE3.2 kmh NNE 4.1 mph6.6 kmh 30.06 in1017.9 mb 0.00 in0.0 mm 0.00 in0.0 mm 0.00 in0.0 mm
01:15 PM 89.0°F31.7°C 66.8°F19.3°C 48% 0.1 mph NNE0.2 kmh NNE 0.1 mph0.2 kmh 30.06 in1017.9 mb 0.00 in0.0 mm 0.00 in0.0 mm 0.00 in0.0 mm
01:30 PM 87.2°F30.7°C 68.6°F20.3°C 54% 0.1 mph WSW0.2 kmh WSW 0.1 mph0.2 kmh 30.06 in1017.9 mb 0.00 in0.0 mm 0.00 in0.0 mm 0.00 in0.0 mm
01:45 PM 87.5°F30.8°C 65.4°F18.6°C 48% 3.0 mph NE4.8 kmh NE 5.1 mph8.2 kmh 30.05 in1017.6 mb 0.00 in0.0 mm 0.00 in0.0 mm 0.00 in0.0 mm
02:00 PM 87.3°F30.7°C 65.3°F18.5°C 48% 0.1 mph E0.2 kmh E 1.1 mph1.8 kmh 30.04 in1017.3 mb 0.00 in0.0 mm 0.00 in0.0 mm 0.00 in0.0 mm
02:15 PM 86.1°F30.1°C 64.2°F17.9°C 48% 0.1 mph E0.2 kmh E 0.1 mph0.2 kmh 30.04 in1017.3 mb 0.00 in0.0 mm 0.00 in0.0 mm 0.00 in0.0 mm
02:30 PM 85.5°F29.7°C 64.8°F18.2°C 50% 0.1 mph E0.2 kmh E 2.1 mph3.4 kmh 30.04 in1017.3 mb 0.00 in0.0 mm 0.00 in0.0 mm 0.00 in0.0 mm
02:45 PM 84.7°F29.3°C 67.3°F19.6°C 56% 0.1 mph E0.2 kmh E 1.1 mph1.8 kmh 30.04 in1017.3 mb 0.00 in0.0 mm 0.00 in0.0 mm 0.00 in0.0 mm
03:00 PM 84.7°F29.3°C 69.3°F20.7°C 60% 0.1 mph E0.2 kmh E 0.1 mph0.2 kmh 30.03 in1016.9 mb 0.00 in0.0 mm 0.00 in0.0 mm 0.00 in0.0 mm
03:15 PM 87.6°F30.9°C 67.3°F19.6°C 51% 0.1 mph E0.2 kmh E 1.1 mph1.8 kmh 30.03 in1016.9 mb 0.00 in0.0 mm 0.00 in0.0 mm 0.00 in0.0 mm
03:30 PM 88.7°F31.5°C 65.9°F18.8°C 47% 0.1 mph E0.2 kmh E 2.1 mph3.4 kmh 30.02 in1016.6 mb 0.00 in0.0 mm 0.00 in0.0 mm 0.00 in0.0 mm
03:45 PM 89.4°F31.9°C 66.0°F18.9°C 46% 0.1 mph S0.2 kmh S 2.1 mph3.4 kmh 30.01 in1016.3 mb 0.00 in0.0 mm 0.00 in0.0 mm 0.00 in0.0 mm
04:00 PM 88.3°F31.3°C 65.6°F18.7°C 47% 0.1 mph NE0.2 kmh NE 1.1 mph1.8 kmh 30.01 in1016.3 mb 0.00 in0.0 mm 0.00 in0.0 mm 0.00 in0.0 mm
04:15 PM 88.1°F31.2°C 66.0°F18.9°C 48% 0.1 mph NE0.2 kmh NE 0.1 mph0.2 kmh 30.01 in1016.3 mb 0.00 in0.0 mm 0.00 in0.0 mm 0.00 in0.0 mm
04:30 PM 87.9°F31.1°C 67.6°F19.8°C 51% 0.1 mph NE0.2 kmh NE 0.1 mph0.2 kmh 30.01 in1016.3 mb 0.00 in0.0 mm 0.00 in0.0 mm 0.00 in0.0 mm
04:45 PM 88.2°F31.2°C 65.5°F18.6°C 47% 2.0 mph SSW3.2 kmh SSW 8.1 mph13.0 kmh 30.01 in1016.3 mb 0.00 in0.0 mm 0.00 in0.0 mm 0.00 in0.0 mm
05:00 PM 87.6°F30.9°C 65.5°F18.6°C 48% 0.1 mph S0.2 kmh S 2.1 mph3.4 kmh 30.00 in1015.9 mb 0.00 in0.0 mm 0.00 in0.0 mm 0.00 in0.0 mm
05:15 PM 85.7°F29.8°C 68.2°F20.1°C 56% 0.1 mph S0.2 kmh S 0.1 mph0.2 kmh 30.00 in1015.9 mb 0.00 in0.0 mm 0.00 in0.0 mm 0.00 in0.0 mm
05:30 PM 85.0°F29.4°C 68.1°F20.1°C 57% 0.1 mph S0.2 kmh S 0.1 mph0.2 kmh 30.00 in1015.9 mb 0.00 in0.0 mm 0.00 in0.0 mm 0.00 in0.0 mm
05:45 PM 84.8°F29.3°C 67.9°F19.9°C 57% 0.1 mph S0.2 kmh S 0.1 mph0.2 kmh 30.00 in1015.9 mb 0.00 in0.0 mm 0.00 in0.0 mm 0.00 in0.0 mm
06:00 PM 84.8°F29.3°C 68.9°F20.5°C 59% 0.1 mph SW0.2 kmh SW 0.1 mph0.2 kmh 30.01 in1016.3 mb 0.00 in0.0 mm 0.00 in0.0 mm 0.00 in0.0 mm
06:15 PM 84.6°F29.2°C 69.2°F20.7°C 60% 0.1 mph S0.2 kmh S 0.1 mph0.2 kmh 30.01 in1016.3 mb 0.00 in0.0 mm 0.00 in0.0 mm 0.00 in0.0 mm
06:30 PM 84.4°F29.1°C 66.5°F19.2°C 55% 0.1 mph S0.2 kmh S 2.1 mph3.4 kmh 30.00 in1015.9 mb 0.00 in0.0 mm 0.00 in0.0 mm 0.00 in0.0 mm
06:45 PM 84.2°F29.0°C 67.9°F19.9°C 58% 0.1 mph WSW0.2 kmh WSW 0.1 mph0.2 kmh 30.01 in1016.3 mb 0.00 in0.0 mm 0.00 in0.0 mm 0.00 in0.0 mm
07:00 PM 84.1°F28.9°C 67.3°F19.6°C 57% 0.1 mph WSW0.2 kmh WSW 0.1 mph0.2 kmh 30.01 in1016.3 mb 0.00 in0.0 mm 0.00 in0.0 mm 0.00 in0.0 mm
07:15 PM 82.5°F28.1°C 67.2°F19.6°C 60% 2.0 mph ESE3.2 kmh ESE 6.1 mph9.8 kmh 30.01 in1016.3 mb 0.00 in0.0 mm 0.00 in0.0 mm 0.00 in0.0 mm
07:30 PM 81.7°F27.6°C 66.5°F19.2°C 60% 1.0 mph SE1.6 kmh SE 4.1 mph6.6 kmh 30.01 in1016.3 mb 0.00 in0.0 mm 0.00 in0.0 mm 0.00 in0.0 mm
07:45 PM 81.5°F27.5°C 66.3°F19.1°C 60% 0.1 mph SSE0.2 kmh SSE 3.1 mph5.0 kmh 30.01 in1016.3 mb 0.00 in0.0 mm 0.00 in0.0 mm 0.00 in0.0 mm
08:00 PM 81.5°F27.5°C 66.3°F19.1°C 60% 1.0 mph SSE1.6 kmh SSE 8.1 mph13.0 kmh 30.02 in1016.6 mb 0.00 in0.0 mm 0.00 in0.0 mm 0.00 in0.0 mm
08:15 PM 81.1°F27.3°C 66.9°F19.4°C 62% 0.1 mph SSE0.2 kmh SSE 1.1 mph1.8 kmh 30.03 in1016.9 mb 0.00 in0.0 mm 0.00 in0.0 mm 0.00 in0.0 mm
08:30 PM 80.2°F26.8°C 66.9°F19.4°C 64% 0.1 mph SSE0.2 kmh SSE 1.1 mph1.8 kmh 30.03 in1016.9 mb 0.00 in0.0 mm 0.00 in0.0 mm 0.00 in0.0 mm
08:45 PM 79.7°F26.5°C 66.5°F19.2°C 64% 0.1 mph SSE0.2 kmh SSE 2.1 mph3.4 kmh 30.04 in1017.3 mb 0.00 in0.0 mm 0.00 in0.0 mm 0.00 in0.0 mm
09:00 PM 79.2°F26.2°C 66.9°F19.4°C 66% 0.1 mph SSE0.2 kmh SSE 0.1 mph0.2 kmh 30.04 in1017.3 mb 0.00 in0.0 mm 0.00 in0.0 mm 0.00 in0.0 mm
09:15 PM 78.3°F25.7°C 66.4°F19.1°C 67% 0.1 mph SSE0.2 kmh SSE 0.1 mph0.2 kmh 30.04 in1017.3 mb 0.00 in0.0 mm 0.00 in0.0 mm 0.00 in0.0 mm
09:30 PM 77.9°F25.5°C 66.5°F19.2°C 68% 0.1 mph SSE0.2 kmh SSE 0.1 mph0.2 kmh 30.04 in1017.3 mb 0.00 in0.0 mm 0.00 in0.0 mm 0.00 in0.0 mm
09:45 PM 77.3°F25.2°C 66.3°F19.1°C 69% 0.1 mph SSE0.2 kmh SSE 0.1 mph0.2 kmh 30.05 in1017.6 mb 0.00 in0.0 mm 0.00 in0.0 mm 0.00 in0.0 mm
10:00 PM 76.3°F24.6°C 66.6°F19.2°C 72% 0.1 mph SSE0.2 kmh SSE 0.1 mph0.2 kmh 30.04 in1017.3 mb 0.00 in0.0 mm 0.00 in0.0 mm 0.00 in0.0 mm
10:15 PM 75.9°F24.4°C 67.0°F19.4°C 74% 0.1 mph SSE0.2 kmh SSE 0.1 mph0.2 kmh 30.04 in1017.3 mb 0.00 in0.0 mm 0.00 in0.0 mm 0.00 in0.0 mm
10:30 PM 75.0°F23.9°C 66.5°F19.2°C 75% 0.1 mph SSE0.2 kmh SSE 0.1 mph0.2 kmh 30.04 in1017.3 mb 0.00 in0.0 mm 0.00 in0.0 mm 0.00 in0.0 mm
10:45 PM 75.1°F23.9°C 66.2°F19.0°C 74% 1.0 mph SSE1.6 kmh SSE 2.1 mph3.4 kmh 30.04 in1017.3 mb 0.00 in0.0 mm 0.00 in0.0 mm 0.00 in0.0 mm
11:00 PM 75.2°F24.0°C 65.9°F18.8°C 73% 0.1 mph SSE0.2 kmh SSE 3.1 mph5.0 kmh 30.04 in1017.3 mb 0.00 in0.0 mm 0.00 in0.0 mm 0.00 in0.0 mm
11:15 PM 75.1°F23.9°C 65.8°F18.8°C 73% 0.1 mph SSE0.2 kmh SSE 2.1 mph3.4 kmh 30.05 in1017.6 mb 0.00 in0.0 mm 0.00 in0.0 mm 0.00 in0.0 mm
11:30 PM 74.8°F23.8°C 65.6°F18.7°C 73% 0.1 mph SSE0.2 kmh SSE 2.1 mph3.4 kmh 30.04 in1017.3 mb 0.00 in0.0 mm 0.00 in0.0 mm 0.00 in0.0 mm
11:45 PM 74.1°F23.4°C 65.3°F18.5°C 74% 1.0 mph SSE1.6 kmh SSE 3.1 mph5.0 kmh 30.04 in1017.3 mb 0.00 in0.0 mm 0.00 in0.0 mm 0.00 in0.0 mm